Terminal Aerodrome Forecast
Issued by NWS

Home | Current Version | Previous Version | Text Only | Print | Product List | Glossary On
Versions: 1 2 3 4 5 6 7 8 9 10 11 12 13 14 15 16 17
545
FTUS44 KLZK 190521
TAFLLQ
TAF
KLLQ 190521Z 1906/2006 VRB03KT P6SM VCTS SCT035CB BKN250
     FM190900 VRB03KT P6SM SCT250
     FM191500 00000KT P6SM SCT050 BKN250=

USA.gov is the U.S. government's official web portal to all federal, state and local government web resources and services.